Spring's Hourly Summary for Friday, July 6, 2018
Hour Temp
(f)
RH
(%)
Solar Rad.
(MJ/m2)
Rainfall
(in)
Wind
(mph)
7/6/2018 12:00 AM 75 90 0 0.01 3.58
7/6/2018 1:00 AM 75 88 0 0.01 2
7/6/2018 2:00 AM 75 91 0 0 1.66
7/6/2018 3:00 AM 75 95 0 0 0.64
7/6/2018 4:00 AM 75 95 0 0 0.04
7/6/2018 5:00 AM 74 96 0 0 0.08
7/6/2018 6:00 AM 74 97 0 0 0.42
7/6/2018 7:00 AM 74 97 0.02 0 0.66
7/6/2018 8:00 AM 75 89 0.45 0 2.14
7/6/2018 9:00 AM 78 78 1.15 0 3.71
7/6/2018 10:00 AM 80 72 1.82 0 3.15
7/6/2018 11:00 AM 83 66 2.5 0 2.87
7/6/2018 12:00 PM 85 60 2.79 0 3.36
7/6/2018 1:00 PM 87 53 3.2 0.01 3.76
7/6/2018 2:00 PM 89 49 3.09 0 3.82
7/6/2018 3:00 PM 90 47 3.48 0 4.49
7/6/2018 4:00 PM 90 44 3.03 0 4.23
7/6/2018 5:00 PM 90 44 1.84 0 3.79
7/6/2018 6:00 PM 89 51 1.62 0 3.32
7/6/2018 7:00 PM 90 50 1.22 0 3.75
7/6/2018 8:00 PM 88 53 0.28 0 2.31
7/6/2018 9:00 PM 86 57 0.01 0 1.52
7/6/2018 10:00 PM 83 66 0 0 0.44
7/6/2018 11:00 PM 81 74 0 0 0.32
Data Summary 81 70 26.50 0.03 2.34